Time;durP1;ratioP1;P1;durP2;ratioP2;P2;SDS_P1;SDS_P2;PMS_P1;PMS_P2;Temp;Humidity;BMP_temperature;BMP_pressure;BME280_temperature;BME280_humidity;BME280_pressure;Samples;Min_cycle;Max_cycle;Signal;HPM_P1;HPM_P2
2021/01/30 00:00:21;;;;;;;15.63;10.93;;;204.90;2252.80;;;;;;4916403;29;20083;-81
2021/01/30 00:02:46;;;;;;;16.75;11.43;;;204.90;2252.80;;;;;;4915397;29;20024;-86
2021/01/30 00:05:12;;;;;;;18.25;13.05;;;204.90;2252.80;;;;;;4916302;29;20537;-86
2021/01/30 00:07:38;;;;;;;17.10;12.07;;;204.90;2252.80;;;;;;4916163;29;20031;-85
2021/01/30 00:10:05;;;;;;;15.85;10.93;;;204.90;2252.80;;;;;;4915462;29;20028;-85
2021/01/30 00:12:31;;;;;;;15.98;11.55;;;204.90;2252.80;;;;;;4915947;29;20032;-84
2021/01/30 00:14:57;;;;;;;17.52;12.95;;;204.90;2252.80;;;;;;4915897;29;20032;-85
2021/01/30 00:17:23;;;;;;;18.05;12.90;;;204.90;2252.80;;;;;;4898811;29;20024;-84
2021/01/30 00:19:49;;;;;;;16.55;11.85;;;204.90;2252.80;;;;;;4916394;29;20367;-84
2021/01/30 00:22:18;;;;;;;13.70;10.48;;;204.90;2252.80;;;;;;4915879;29;20059;-87
2021/01/30 00:24:46;;;;;;;16.48;11.20;;;205.00;2252.80;;;;;;4916468;29;20036;-86
2021/01/30 00:27:14;;;;;;;21.25;13.75;;;204.90;2252.80;;;;;;4915370;29;20115;-86
2021/01/30 00:29:41;;;;;;;15.95;11.45;;;204.90;2252.80;;;;;;4898263;29;20036;-86
2021/01/30 00:32:08;;;;;;;15.23;10.68;;;204.90;2252.80;;;;;;4915766;29;20064;-85
2021/01/30 00:34:36;;;;;;;13.45;8.75;;;204.90;2252.80;;;;;;4915053;29;20047;-86
2021/01/30 00:37:07;;;;;;;14.85;9.32;;;204.90;2252.80;;;;;;4899708;29;20054;-85
2021/01/30 00:39:33;;;;;;;13.27;9.82;;;180.00;2252.80;;;;;;4912926;29;20044;-85
2021/01/30 00:41:58;;;;;;;11.43;8.50;;;204.80;2252.80;;;;;;5057378;23;20489;-85
2021/01/30 00:44:24;;;;;;;11.38;8.13;;;204.90;2252.80;;;;;;4934651;29;20087;-85
2021/01/30 00:46:50;;;;;;;13.00;9.20;;;204.90;2252.80;;;;;;4916889;29;20023;-84
2021/01/30 00:49:17;;;;;;;13.88;9.23;;;204.80;2252.80;;;;;;4917795;29;20043;-84
2021/01/30 00:51:43;;;;;;;24.05;15.10;;;204.80;2252.80;;;;;;4934074;29;20027;-85
2021/01/30 00:54:09;;;;;;;17.27;11.10;;;204.80;2252.80;;;;;;4916444;29;20051;-84
2021/01/30 00:56:34;;;;;;;19.52;13.00;;;204.80;2252.80;;;;;;4916072;29;20039;-86
2021/01/30 00:59:00;;;;;;;16.55;10.35;;;204.80;2252.80;;;;;;4917607;29;20040;-85
2021/01/30 01:01:26;;;;;;;20.33;11.90;;;204.80;2252.80;;;;;;4932031;29;20024;-85
2021/01/30 01:03:52;;;;;;;16.35;10.65;;;204.80;2252.80;;;;;;4922568;29;20055;-86
2021/01/30 01:06:18;;;;;;;16.05;9.98;;;204.80;2252.80;;;;;;4934718;29;20035;-81
2021/01/30 01:08:44;;;;;;;14.80;8.88;;;204.80;2252.80;;;;;;4910163;29;20087;-85
2021/01/30 01:11:10;;;;;;;13.68;9.05;;;204.80;2252.80;;;;;;4917741;29;20032;-84
2021/01/30 01:13:36;;;;;;;12.75;9.45;;;204.80;2252.80;;;;;;4927667;29;20536;-86
2021/01/30 01:16:03;;;;;;;12.57;8.73;;;204.80;2252.80;;;;;;4934664;29;20024;-86
2021/01/30 01:18:28;;;;;;;16.70;10.00;;;204.80;2252.80;;;;;;4934306;29;20044;-83
2021/01/30 01:20:54;;;;;;;16.38;10.20;;;180.10;2252.80;;;;;;4934756;29;20020;-85
2021/01/30 01:23:20;;;;;;;17.08;11.32;;;180.10;2252.80;;;;;;4932548;29;20078;-83
2021/01/30 01:25:46;;;;;;;21.88;12.75;;;180.10;2252.80;;;;;;4916575;29;20069;-85
2021/01/30 01:28:11;;;;;;;20.55;12.30;;;180.10;2252.80;;;;;;4922530;29;20063;-85
2021/01/30 01:30:37;;;;;;;17.33;10.57;;;180.10;2252.80;;;;;;4918654;23;20059;-81
2021/01/30 01:33:03;;;;;;;20.77;12.15;;;180.10;2252.80;;;;;;4898857;29;20032;-85
2021/01/30 01:35:32;;;;;;;19.45;11.18;;;179.80;2252.80;;;;;;4915433;29;20036;-85
2021/01/30 01:37:58;;;;;;;20.80;12.27;;;180.10;2252.80;;;;;;4919612;29;20395;-82
2021/01/30 01:40:29;;;;;;;17.95;11.70;;;179.80;2252.80;;;;;;4898365;29;20032;-83
2021/01/30 01:43:01;;;;;;;21.80;12.05;;;180.00;2252.80;;;;;;4915346;29;20096;-85
2021/01/30 01:45:27;;;;;;;19.73;12.52;;;180.00;2252.80;;;;;;4916941;29;20475;-85
2021/01/30 01:47:55;;;;;;;15.65;10.55;;;180.00;2252.80;;;;;;4915162;29;20024;-87
2021/01/30 01:50:50;;;;;;;13.80;9.90;;;180.00;2252.80;;;;;;4903638;29;20040;-85
2021/01/30 01:53:22;;;;;;;14.70;10.25;;;180.00;2252.80;;;;;;4805431;29;20064;-86
2021/01/30 01:56:00;;;;;;;15.38;10.43;;;180.00;2252.80;;;;;;4821687;29;20070;-82
2021/01/30 01:58:30;;;;;;;15.40;10.55;;;180.00;2252.80;;;;;;4821871;29;20050;-85
2021/01/30 02:00:55;;;;;;;13.63;7.90;;;180.00;2252.80;;;;;;4825946;29;20050;-86
2021/01/30 02:03:22;;;;;;;12.05;7.75;;;180.00;2252.80;;;;;;4823414;29;20046;-82
2021/01/30 02:05:48;;;;;;;11.00;6.95;;;180.00;2252.80;;;;;;4808525;29;20031;-83
2021/01/30 02:08:17;;;;;;;11.02;6.50;;;179.90;2252.80;;;;;;4823809;29;20040;-85
2021/01/30 02:10:46;;;;;;;12.80;8.32;;;179.90;2252.80;;;;;;4829519;29;20042;-83
2021/01/30 02:13:34;;;;;;;15.43;9.80;;;179.90;2252.80;;;;;;4826893;29;20544;-85
2021/01/30 02:16:08;;;;;;;13.25;8.60;;;179.90;2252.80;;;;;;4807937;29;20125;-82
2021/01/30 02:19:19;;;;;;;11.95;8.30;;;179.90;2252.80;;;;;;4805140;29;20031;-86
2021/01/30 02:21:50;;;;;;;14.15;9.02;;;179.80;2252.80;;;;;;4806632;29;20035;-84
2021/01/30 02:24:53;;;;;;;16.35;10.82;;;179.80;2252.80;;;;;;4805208;29;20039;-85
2021/01/30 02:27:27;;;;;;;25.50;15.35;;;179.80;2252.80;;;;;;4805340;29;20112;-84
2021/01/30 02:30:28;;;;;;;18.77;12.50;;;179.80;2252.80;;;;;;4850230;29;20555;-84
2021/01/30 02:33:14;;;;;;;14.88;10.05;;;179.80;2252.80;;;;;;4898932;29;20040;-85
2021/01/30 02:35:58;;;;;;;17.02;11.05;;;179.80;2252.80;;;;;;4883026;29;20025;-85
2021/01/30 02:38:27;;;;;;;16.30;11.02;;;179.90;2252.80;;;;;;4882204;29;20036;-86
2021/01/30 02:40:58;;;;;;;14.55;9.32;;;179.90;2252.80;;;;;;4899687;29;20088;-85
2021/01/30 02:43:30;;;;;;;14.30;9.32;;;179.90;2252.80;;;;;;4903690;29;20028;-84
2021/01/30 02:46:03;;;;;;;13.40;9.38;;;179.90;2252.80;;;;;;4905475;29;20040;-85
2021/01/30 02:48:37;;;;;;;13.45;9.13;;;179.90;2252.80;;;;;;4899158;29;20036;-85
2021/01/30 02:51:06;;;;;;;13.43;9.43;;;179.90;2252.80;;;;;;4898562;29;20035;-85
2021/01/30 02:53:35;;;;;;;14.07;9.45;;;179.90;2252.80;;;;;;4905971;29;20036;-85
2021/01/30 02:56:04;;;;;;;14.65;9.05;;;180.00;2252.80;;;;;;4881334;29;20478;-86
2021/01/30 02:59:06;;;;;;;13.95;9.38;;;180.00;2252.80;;;;;;4898371;29;20398;-87
2021/01/30 03:01:37;;;;;;;10.63;7.22;;;180.10;2252.80;;;;;;4897887;29;20063;-87
2021/01/30 03:04:08;;;;;;;9.00;6.70;;;180.10;2252.80;;;;;;4898675;29;20567;-85
2021/01/30 03:06:34;;;;;;;10.38;7.60;;;180.10;2252.80;;;;;;4899052;29;20072;-85
2021/01/30 03:09:14;;;;;;;12.05;7.28;;;180.10;2252.80;;;;;;4907775;29;20024;-84
2021/01/30 03:11:49;;;;;;;9.75;7.43;;;204.80;2252.80;;;;;;4880234;29;20128;-85
2021/01/30 03:14:19;;;;;;;10.52;7.90;;;204.80;2252.80;;;;;;4880531;29;20039;-85
2021/01/30 03:16:46;;;;;;;15.38;9.88;;;204.80;2252.80;;;;;;4897135;29;20028;-83
2021/01/30 03:19:22;;;;;;;15.32;8.75;;;204.80;2252.80;;;;;;4899423;29;20119;-86
2021/01/30 03:21:54;;;;;;;12.40;8.82;;;180.10;2252.80;;;;;;4881523;29;20029;-83
2021/01/30 03:24:19;;;;;;;16.27;10.05;;;204.80;2252.80;;;;;;4898197;29;20102;-82
2021/01/30 03:26:47;;;;;;;20.40;12.50;;;204.80;2252.80;;;;;;4898278;29;20025;-84
2021/01/30 03:29:16;;;;;;;16.98;9.95;;;204.80;2252.80;;;;;;4888190;29;20095;-87
2021/01/30 03:31:42;;;;;;;12.98;8.43;;;204.80;2252.80;;;;;;4898851;29;20041;-85
2021/01/30 03:34:08;;;;;;;9.40;6.97;;;204.80;2252.80;;;;;;4897426;29;20035;-83
2021/01/30 03:36:34;;;;;;;11.48;7.47;;;180.10;2252.80;;;;;;4883554;29;20021;-83
2021/01/30 03:39:00;;;;;;;11.63;6.90;;;204.80;2252.80;;;;;;4882230;29;20048;-85
2021/01/30 03:41:26;;;;;;;12.45;7.05;;;204.80;2252.80;;;;;;4905219;29;20035;-86
2021/01/30 03:43:52;;;;;;;9.63;5.93;;;204.80;2252.80;;;;;;4898321;29;20029;-84
2021/01/30 03:46:17;;;;;;;9.40;5.82;;;180.10;2252.80;;;;;;4880637;29;20072;-85
2021/01/30 03:48:43;;;;;;;7.32;4.80;;;180.10;2252.80;;;;;;4897834;29;20088;-85
2021/01/30 03:51:09;;;;;;;8.00;5.07;;;180.10;2252.80;;;;;;4900409;29;20558;-84
2021/01/30 03:53:36;;;;;;;8.05;4.82;;;180.10;2252.80;;;;;;4897394;29;20081;-85
2021/01/30 03:56:02;;;;;;;10.18;5.20;;;180.10;2252.80;;;;;;4899395;29;20071;-86
2021/01/30 03:58:28;;;;;;;8.73;5.35;;;180.10;2252.80;;;;;;4880789;29;20040;-81
2021/01/30 04:00:54;;;;;;;8.98;5.63;;;180.10;2252.80;;;;;;4898599;29;20025;-86
2021/01/30 04:03:19;;;;;;;10.15;6.20;;;180.00;2252.80;;;;;;4897774;29;20033;-84
2021/01/30 04:05:45;;;;;;;12.48;6.93;;;180.00;2252.80;;;;;;4880278;29;20074;-86
2021/01/30 04:08:11;;;;;;;9.95;5.85;;;179.90;2252.80;;;;;;4898443;29;20069;-86
2021/01/30 04:10:37;;;;;;;12.13;6.82;;;179.90;2252.80;;;;;;4898128;29;20031;-86
2021/01/30 04:13:07;;;;;;;12.02;6.13;;;179.80;2252.80;;;;;;4897077;29;20035;-85
2021/01/30 04:15:36;;;;;;;12.88;7.18;;;179.70;2252.80;;;;;;4880462;29;20061;-85
2021/01/30 04:18:03;;;;;;;15.07;7.85;;;179.70;2252.80;;;;;;4897417;29;20461;-86
2021/01/30 04:20:29;;;;;;;13.45;7.82;;;179.60;2252.80;;;;;;4897201;29;20035;-84
2021/01/30 04:22:55;;;;;;;19.20;9.43;;;179.60;2252.80;;;;;;4897603;29;20028;-86
2021/01/30 04:25:23;;;;;;;13.75;7.93;;;179.50;2252.80;;;;;;4897465;29;20371;-84
2021/01/30 04:27:50;;;;;;;16.27;7.68;;;179.50;2252.80;;;;;;4896919;29;20035;-85
2021/01/30 04:30:19;;;;;;;15.70;7.97;;;179.40;2252.80;;;;;;4896989;29;20032;-85
2021/01/30 04:32:44;;;;;;;15.48;7.75;;;179.40;2252.80;;;;;;4884866;29;20040;-85
2021/01/30 04:35:12;;;;;;;13.55;6.80;;;179.30;2252.80;;;;;;4880791;29;20107;-84
2021/01/30 04:37:38;;;;;;;11.65;6.38;;;179.30;2252.80;;;;;;4904597;29;20028;-85
2021/01/30 04:40:07;;;;;;;13.55;6.88;;;179.30;2252.80;;;;;;4877107;29;20056;-85
2021/01/30 04:42:59;;;;;;;13.48;7.63;;;179.20;2252.80;;;;;;4876142;29;20056;-86
2021/01/30 04:45:40;;;;;;;11.77;7.05;;;154.50;2252.80;;;;;;4887347;29;20029;-86
2021/01/30 04:48:24;;;;;;;16.13;10.32;;;154.40;2252.80;;;;;;4878898;29;20040;-86
2021/01/30 04:50:50;;;;;;;12.90;9.20;;;154.40;2252.80;;;;;;4887309;29;20028;-84
2021/01/30 04:53:47;;;;;;;11.65;8.25;;;154.40;2252.80;;;;;;4900105;29;20447;-86
2021/01/30 04:56:38;;;;;;;12.52;8.52;;;154.30;2252.80;;;;;;4802372;29;20061;-86
2021/01/30 04:59:30;;;;;;;9.70;7.25;;;154.20;2252.80;;;;;;4739632;30;20130;-85
2021/01/30 05:01:56;;;;;;;20.27;11.23;;;154.20;2252.80;;;;;;4734310;30;20072;-84
2021/01/30 05:04:41;;;;;;;11.10;8.32;;;154.10;2252.80;;;;;;4736681;30;20127;-86
2021/01/30 05:07:15;;;;;;;10.75;7.50;;;154.10;2252.80;;;;;;4749445;30;20060;-83
2021/01/30 05:10:00;;;;;;;11.13;6.75;;;154.10;2252.80;;;;;;4744289;30;20040;-86
2021/01/30 05:12:55;;;;;;;9.32;6.13;;;154.10;2252.80;;;;;;4728987;30;20150;-86
2021/01/30 05:15:31;;;;;;;;;;;154.00;2252.80;;;;;;4739967;30;20032;-82
2021/01/30 05:18:13;;;;;;;8.52;6.20;;;154.00;2252.80;;;;;;4741232;30;19918;-81
2021/01/30 05:20:46;;;;;;;9.95;6.05;;;153.90;2252.80;;;;;;4741554;30;20048;-85
2021/01/30 05:23:13;;;;;;;11.98;6.88;;;154.00;2252.80;;;;;;4741675;30;20109;-85
2021/01/30 05:25:42;;;;;;;9.93;6.32;;;153.90;2252.80;;;;;;4729220;30;20577;-90
2021/01/30 05:28:22;;;;;;;9.73;6.00;;;153.90;2252.80;;;;;;4736282;30;20507;-86
2021/01/30 05:31:03;;;;;;;9.05;5.95;;;153.90;2252.80;;;;;;4730851;30;20255;-84
2021/01/30 05:33:50;;;;;;;7.50;5.75;;;153.80;2252.80;;;;;;4775325;29;20046;-86
2021/01/30 05:36:31;;;;;;;7.80;5.78;;;154.00;2252.80;;;;;;4861576;29;20101;-81
2021/01/30 05:39:15;;;;;;;7.68;5.70;;;154.00;2252.80;;;;;;4899562;29;20124;-73
2021/01/30 05:42:08;;;;;;;7.20;5.57;;;154.00;2252.80;;;;;;4895540;29;20052;-89
2021/01/30 05:44:47;;;;;;;8.07;5.38;;;154.10;2252.80;;;;;;4877209;29;20387;-84
2021/01/30 05:47:17;;;;;;;7.85;5.45;;;154.10;2252.80;;;;;;4882539;29;20032;-74
2021/01/30 05:50:02;;;;;;;7.20;5.50;;;154.00;2252.80;;;;;;4898762;29;20031;-88
2021/01/30 05:52:34;;;;;;;8.43;5.78;;;154.00;2252.80;;;;;;4898850;29;20147;-80
2021/01/30 05:55:00;;;;;;;9.90;6.88;;;154.00;2252.80;;;;;;4899012;29;20029;-76
2021/01/30 05:57:25;;;;;;;9.68;6.63;;;153.90;2252.80;;;;;;4898482;29;20032;-90
2021/01/30 05:59:55;;;;;;;10.55;7.22;;;153.90;2252.80;;;;;;4906062;29;20043;-86
2021/01/30 06:02:26;;;;;;;12.40;8.45;;;153.90;2252.80;;;;;;4900038;29;21774;-77
2021/01/30 06:04:52;;;;;;;17.20;12.07;;;153.80;2252.80;;;;;;4899034;29;20032;-92
2021/01/30 06:07:35;;;;;;;26.92;16.88;;;153.80;2252.80;;;;;;4899977;29;20028;-88
2021/01/30 06:10:28;;;;;;;57.03;31.52;;;153.90;2252.80;;;;;;4899201;29;20111;-88
2021/01/30 06:13:09;;;;;;;42.03;23.40;;;153.90;2252.80;;;;;;4896072;29;20075;-82
2021/01/30 06:15:37;;;;;;;28.05;18.02;;;153.90;2252.80;;;;;;4897191;29;20517;-79
2021/01/30 06:18:26;;;;;;;27.40;17.23;;;153.90;2252.80;;;;;;4899303;29;20020;-90
2021/01/30 06:21:01;;;;;;;18.92;10.80;;;153.90;2252.80;;;;;;4867006;29;20172;-87
2021/01/30 06:23:26;;;;;;;22.52;13.07;;;153.90;2252.80;;;;;;4876166;29;20029;-86
2021/01/30 06:26:02;;;;;;;29.60;16.83;;;154.00;2252.80;;;;;;4899314;29;20382;-87
2021/01/30 06:28:31;;;;;;;39.38;23.15;;;154.00;2252.80;;;;;;4882942;29;20025;-89
2021/01/30 06:31:11;;;;;;;37.97;22.67;;;154.00;2252.80;;;;;;4883384;29;20064;-90
2021/01/30 06:33:44;;;;;;;49.85;27.73;;;154.10;2252.80;;;;;;4886698;29;20084;-92
2021/01/30 06:36:28;;;;;;;46.00;23.70;;;154.10;2252.80;;;;;;4899400;29;20045;-91
2021/01/30 06:39:05;;;;;;;33.92;20.13;;;154.20;2252.80;;;;;;4898654;29;20040;-85
2021/01/30 06:41:32;;;;;;;23.08;13.27;;;154.30;2252.80;;;;;;4869994;29;20032;-89
2021/01/30 06:43:58;;;;;;;30.52;17.23;;;154.40;2252.80;;;;;;4898537;29;20020;-89
2021/01/30 06:46:25;;;;;;;47.63;25.00;;;154.50;2252.80;;;;;;4881715;29;20084;-90
2021/01/30 06:48:53;;;;;;;31.90;18.40;;;179.30;2252.80;;;;;;4880413;29;20040;-90
2021/01/30 06:51:28;;;;;;;29.08;15.63;;;179.40;2252.80;;;;;;4903010;29;20028;-89
2021/01/30 06:53:54;;;;;;;29.27;17.33;;;179.50;2252.80;;;;;;4881699;29;20870;-89
2021/01/30 06:56:32;;;;;;;21.83;13.23;;;179.60;2252.80;;;;;;4880844;29;20033;-89
2021/01/30 06:59:15;;;;;;;23.42;13.52;;;179.90;2252.80;;;;;;4881765;29;20100;-93
2021/01/30 07:01:45;;;;;;;42.45;27.80;;;179.90;2252.80;;;;;;4880681;29;20033;-73
2021/01/30 07:04:36;;;;;;;41.13;28.55;;;180.10;2252.80;;;;;;4870259;29;159050;-77
2021/01/30 07:07:18;;;;;;;37.85;23.13;;;204.80;2252.80;;;;;;4898038;29;20160;-81
2021/01/30 07:10:02;;;;;;;33.30;21.27;;;180.10;2252.80;;;;;;4898105;29;20033;-80
2021/01/30 07:12:37;;;;;;;34.97;21.52;;;180.00;2252.80;;;;;;4881368;29;20033;-87
2021/01/30 07:15:29;;;;;;;45.47;28.33;;;179.90;2252.80;;;;;;4880617;29;20049;-88
2021/01/30 07:18:04;;;;;;;37.40;24.23;;;179.90;2252.80;;;;;;4897263;29;20364;-88
2021/01/30 07:20:44;;;;;;;33.72;22.23;;;179.90;2252.80;;;;;;4880799;29;20071;-88
2021/01/30 07:23:24;;;;;;;28.08;20.98;;;180.10;2252.80;;;;;;4900590;29;20029;-89
2021/01/30 07:25:49;;;;;;;32.25;26.05;;;205.60;2252.80;;;;;;4889579;29;20028;-85
2021/01/30 07:28:27;;;;;;;64.55;56.38;;;256.10;2252.80;;;;;;4898769;29;20390;-84
2021/01/30 07:31:08;;;;;;;40.00;35.65;;;282.40;2176.00;;;;;;4881582;29;20052;-82
2021/01/30 07:33:51;;;;;;;24.63;21.88;;;333.00;2176.00;;;;;;4880644;29;20033;-82
2021/01/30 07:36:26;;;;;;;33.78;21.67;;;358.70;1843.20;;;;;;4896227;29;20052;-81
2021/01/30 07:39:10;;;;;;;26.58;18.00;;;384.20;1868.80;;;;;;4880682;29;20044;-86
2021/01/30 07:41:59;;;;;;;21.92;14.52;;;409.90;1817.60;;;;;;4898265;29;20502;-83
2021/01/30 07:45:03;;;;;;;39.95;24.67;;;435.30;1689.60;;;;;;4886767;29;20036;-84
2021/01/30 07:47:37;;;;;;;24.55;16.13;;;436.10;1484.80;;;;;;4895756;29;20048;-79
2021/01/30 07:50:07;;;;;;;25.25;17.05;;;460.80;1638.40;;;;;;4897730;29;20031;-82
2021/01/30 07:52:46;;;;;;;21.13;13.70;;;461.10;1536.00;;;;;;4889904;29;20029;-81
2021/01/30 07:55:11;;;;;;;17.67;12.65;;;461.20;1536.00;;;;;;4896080;29;20032;-77
2021/01/30 07:57:43;;;;;;;19.63;12.90;;;461.00;1510.40;;;;;;4895678;29;20028;-81
2021/01/30 08:00:17;;;;;;;23.40;16.40;;;436.10;1484.80;;;;;;4904892;29;20036;-82
2021/01/30 08:03:33;;;;;;;20.85;14.80;;;435.80;1561.60;;;;;;4895693;29;20056;-91
2021/01/30 08:06:48;;;;;;;15.70;12.07;;;435.90;1408.00;;;;;;4840107;29;20166;-85
2021/01/30 08:09:24;;;;;;;;;;;435.90;1484.80;;;;;;4836838;29;20046;-85
2021/01/30 08:12:22;;;;;;;77.53;52.97;;;435.70;1459.20;;;;;;4840734;29;19912;-72
2021/01/30 08:15:02;;;;;;;39.65;34.25;;;435.90;1459.20;;;;;;4838976;29;20046;-73
2021/01/30 08:17:28;;;;;;;19.23;13.30;;;460.80;1561.60;;;;;;4834232;29;20034;-74
2021/01/30 08:20:11;;;;;;;24.77;14.40;;;435.80;1433.60;;;;;;4836315;29;20564;-71
2021/01/30 08:23:04;;;;;;;21.92;14.57;;;435.80;1408.00;;;;;;4838049;29;20038;-72
2021/01/30 08:25:46;;;;;;;25.77;16.63;;;436.00;1459.20;;;;;;4839072;29;20113;-73
2021/01/30 08:28:17;;;;;;;19.55;14.13;;;435.90;1459.20;;;;;;4841317;29;20356;-73
2021/01/30 08:30:44;;;;;;;16.50;12.77;;;436.10;1408.00;;;;;;4839098;29;20057;-79
2021/01/30 08:33:10;;;;;;;28.63;18.20;;;435.70;1408.00;;;;;;4849504;29;20041;-79
2021/01/30 08:35:42;;;;;;;16.23;12.07;;;435.60;1433.60;;;;;;4842629;29;20522;-84
2021/01/30 08:38:13;;;;;;;17.23;12.00;;;435.20;1510.40;;;;;;4838695;29;20026;-84
2021/01/30 08:40:46;;;;;;;14.50;10.80;;;410.20;1510.40;;;;;;4890397;29;20041;-77
2021/01/30 08:43:35;;;;;;;14.48;10.73;;;409.60;1561.60;;;;;;4896195;29;20047;-83
2021/01/30 08:46:33;;;;;;;17.38;13.07;;;384.70;1612.80;;;;;;4798188;29;20134;-77
2021/01/30 08:49:14;;;;;;;20.08;14.00;;;384.30;1638.40;;;;;;4786198;29;20031;-77
2021/01/30 08:51:49;;;;;;;16.83;12.18;;;359.10;1715.20;;;;;;4782232;29;20096;-77
2021/01/30 08:54:29;;;;;;;16.52;11.95;;;358.70;1715.20;;;;;;4782647;29;20046;-76
2021/01/30 08:56:55;;;;;;;12.13;9.88;;;358.40;1766.40;;;;;;4783404;29;20058;-77
2021/01/30 08:59:40;;;;;;;14.07;11.00;;;333.50;1843.20;;;;;;4787200;29;20827;-77
2021/01/30 09:02:27;;;;;;;11.02;6.65;;;333.40;1817.60;;;;;;4783079;29;20035;-79
2021/01/30 09:05:22;;;;;;;12.20;8.27;;;333.30;1894.40;;;;;;4781472;29;20110;-74
2021/01/30 09:08:16;;;;;;;12.95;8.35;;;333.00;1920.00;;;;;;4744000;30;20886;-77
2021/01/30 09:10:42;;;;;;;;;;;332.80;1920.00;;;;;;4747596;30;20074;-74
2021/01/30 09:13:19;;;;;;;13.90;9.93;;;307.80;1945.60;;;;;;4749038;30;20408;-77
2021/01/30 09:15:44;;;;;;;8.65;6.45;;;307.90;1971.20;;;;;;4752449;30;20064;-82
2021/01/30 09:18:22;;;;;;;11.30;6.75;;;307.70;1971.20;;;;;;4748703;30;20078;-70
2021/01/30 09:21:18;;;;;;;9.25;6.10;;;307.50;1996.80;;;;;;4746257;30;20032;-70
2021/01/30 09:23:46;;;;;;;8.82;6.20;;;307.50;2022.40;;;;;;4815900;29;20053;-72
2021/01/30 09:26:30;;;;;;;10.88;5.85;;;307.40;2022.40;;;;;;4829974;29;20053;-72
2021/01/30 09:29:00;;;;;;;9.23;5.85;;;307.30;2022.40;;;;;;4826474;29;20034;-72
2021/01/30 09:31:27;;;;;;;20.80;5.90;;;307.20;2048.00;;;;;;4831158;29;20288;-71
2021/01/30 09:34:19;;;;;;;12.10;7.18;;;307.20;2048.00;;;;;;4828507;29;20044;-72
2021/01/30 09:36:50;;;;;;;10.40;5.18;;;282.50;2022.40;;;;;;4825894;29;20026;-77
2021/01/30 09:39:28;;;;;;;13.48;6.30;;;282.50;2022.40;;;;;;4819012;29;20057;-79
2021/01/30 09:42:19;;;;;;;10.75;6.80;;;282.40;2048.00;;;;;;4831198;29;20022;-69
2021/01/30 09:44:47;;;;;;;7.60;5.25;;;282.40;2073.60;;;;;;4870817;29;20048;-72
2021/01/30 09:47:21;;;;;;;7.97;4.70;;;282.30;2048.00;;;;;;4898718;29;20359;-84
2021/01/30 09:49:54;;;;;;;8.50;5.00;;;282.30;2048.00;;;;;;4899223;29;20025;-73
2021/01/30 09:52:21;;;;;;;7.72;5.03;;;282.30;2073.60;;;;;;4898490;29;20059;-73
2021/01/30 09:54:54;;;;;;;8.85;5.22;;;282.10;2048.00;;;;;;4899281;29;20561;-77
2021/01/30 09:57:24;;;;;;;7.30;4.57;;;282.30;2048.00;;;;;;4899622;29;20037;-79
2021/01/30 10:00:03;;;;;;;9.65;5.38;;;282.30;2048.00;;;;;;4898928;29;20176;-85
2021/01/30 10:02:30;;;;;;;17.42;6.22;;;282.30;2048.00;;;;;;4898718;29;20043;-82
2021/01/30 10:05:09;;;;;;;15.13;6.70;;;282.30;2048.00;;;;;;4898810;29;20024;-82
2021/01/30 10:07:36;;;;;;;9.38;4.50;;;282.30;2048.00;;;;;;4898862;29;20028;-83
2021/01/30 10:10:27;;;;;;;21.05;12.95;;;282.30;2048.00;;;;;;4899476;29;20382;-86
2021/01/30 10:12:55;;;;;;;17.55;9.48;;;282.40;2073.60;;;;;;4889279;29;20036;-77
2021/01/30 10:15:33;;;;;;;12.02;6.35;;;282.40;2099.20;;;;;;4899988;29;20021;-74
2021/01/30 10:18:14;;;;;;;12.95;7.28;;;282.50;2073.60;;;;;;4899007;29;20029;-77
2021/01/30 10:21:01;;;;;;;8.88;6.88;;;282.40;2099.20;;;;;;4890988;29;20037;-75
2021/01/30 10:23:27;;;;;;;6.90;4.93;;;281.80;2150.40;;;;;;4897437;29;20033;-73
2021/01/30 10:26:07;;;;;;;9.15;5.22;;;282.50;2073.60;;;;;;4899413;29;20031;-74
2021/01/30 10:28:47;;;;;;;9.95;6.80;;;282.50;2048.00;;;;;;4896326;29;20115;-77
2021/01/30 10:31:15;;;;;;;12.85;5.95;;;307.20;2124.80;;;;;;4896141;29;20067;-74
2021/01/30 10:33:48;;;;;;;8.60;5.18;;;282.50;2073.60;;;;;;4898742;29;20181;-76
2021/01/30 10:36:15;;;;;;;9.02;6.03;;;307.20;2073.60;;;;;;4898829;29;20036;-78
2021/01/30 10:38:41;;;;;;;8.13;5.03;;;307.20;2099.20;;;;;;4899255;29;20040;-76
2021/01/30 10:41:17;;;;;;;9.40;4.75;;;307.20;2073.60;;;;;;4898961;29;20371;-74
2021/01/30 10:43:45;;;;;;;13.02;4.97;;;307.20;2099.20;;;;;;4898174;29;20032;-75
2021/01/30 10:46:44;;;;;;;11.15;6.00;;;307.20;2073.60;;;;;;4890367;29;20083;-78
2021/01/30 10:49:31;;;;;;;7.30;5.15;;;307.30;2124.80;;;;;;4840338;29;20068;-74
2021/01/30 10:52:24;;;;;;;14.27;5.85;;;307.40;2073.60;;;;;;4839670;29;20122;-78
2021/01/30 10:54:50;;;;;;;65.57;36.67;;;307.40;2124.80;;;;;;4832484;29;20034;-76
2021/01/30 10:57:18;;;;;;;24.20;14.50;;;307.40;2099.20;;;;;;4840586;29;20083;-86
2021/01/30 10:59:59;;;;;;;27.15;17.40;;;307.50;2073.60;;;;;;4825475;29;20046;-84
2021/01/30 11:02:37;;;;;;;10.43;4.70;;;307.50;2048.00;;;;;;4832935;29;20512;-82
2021/01/30 11:05:18;;;;;;;18.58;11.90;;;307.50;2022.40;;;;;;4841013;29;20212;-84
2021/01/30 11:07:46;;;;;;;9.18;6.25;;;307.40;2048.00;;;;;;4835499;29;20038;-83
2021/01/30 11:10:30;;;;;;;19.80;5.85;;;307.40;2048.00;;;;;;4840903;29;20052;-82
2021/01/30 11:13:12;;;;;;;9.27;6.22;;;307.40;2048.00;;;;;;4824774;29;20038;-83
2021/01/30 11:15:42;;;;;;;10.70;5.95;;;307.50;2048.00;;;;;;4839832;29;20555;-83
2021/01/30 11:18:27;;;;;;;9.65;5.70;;;307.50;2073.60;;;;;;4840115;29;20048;-83
2021/01/30 11:20:54;;;;;;;12.18;5.47;;;307.50;2048.00;;;;;;4836661;29;20048;-84
2021/01/30 11:23:42;;;;;;;10.80;4.95;;;307.50;2022.40;;;;;;4839327;29;20562;-78
2021/01/30 11:26:34;;;;;;;10.38;5.22;;;307.50;2022.40;;;;;;4896871;29;20485;-75
2021/01/30 11:29:02;;;;;;;14.65;5.10;;;307.60;2073.60;;;;;;4898216;29;20024;-76
2021/01/30 11:31:29;;;;;;;6.78;4.93;;;307.60;2048.00;;;;;;4897046;29;20131;-75
2021/01/30 11:33:56;;;;;;;8.23;4.82;;;307.60;2022.40;;;;;;4881159;29;20060;-74
2021/01/30 11:36:23;;;;;;;12.05;5.03;;;307.70;2048.00;;;;;;4897838;29;20025;-76
2021/01/30 11:39:03;;;;;;;12.77;4.40;;;307.70;2048.00;;;;;;4897685;29;20029;-78
2021/01/30 11:41:28;;;;;;;14.30;4.63;;;307.70;1945.60;;;;;;4910294;29;20103;-76
2021/01/30 11:43:54;;;;;;;7.25;4.10;;;307.70;1971.20;;;;;;4897594;29;20215;-76
2021/01/30 11:46:21;;;;;;;5.85;3.95;;;307.70;1920.00;;;;;;4898034;29;20032;-76
2021/01/30 11:48:47;;;;;;;23.25;4.43;;;307.70;1945.60;;;;;;4897752;29;20060;-80
2021/01/30 11:51:24;;;;;;;5.10;3.50;;;307.70;1945.60;;;;;;4898156;29;20493;-78
2021/01/30 12:04:23;;;;;;;14.63;4.07;;;307.80;2022.40;;;;;;5072703;28;20356;-74
2021/01/30 12:06:49;;;;;;;16.25;5.30;;;307.70;1868.80;;;;;;5067653;28;20075;-80
2021/01/30 12:09:14;;;;;;;12.32;3.72;;;307.70;1894.40;;;;;;5065051;28;20020;-75
2021/01/30 12:11:40;;;;;;;6.47;3.13;;;307.80;1920.00;;;;;;5067092;28;20025;-73
2021/01/30 12:14:06;;;;;;;7.47;3.72;;;307.80;1894.40;;;;;;5067004;28;20032;-76
2021/01/30 12:16:32;;;;;;;5.38;3.22;;;307.90;1945.60;;;;;;5057252;28;20442;-75
2021/01/30 12:18:58;;;;;;;9.88;4.10;;;307.90;1894.40;;;;;;5047567;28;20112;-72
2021/01/30 12:21:24;;;;;;;6.90;4.28;;;307.90;1843.20;;;;;;5049806;28;20021;-81
2021/01/30 12:23:50;;;;;;;8.25;4.20;;;308.00;1817.60;;;;;;5031105;28;20029;-81
2021/01/30 12:26:23;;;;;;;10.55;4.18;;;308.00;1817.60;;;;;;5029500;28;20048;-74
2021/01/30 12:28:50;;;;;;;6.28;2.97;;;308.00;1766.40;;;;;;5048641;28;20045;-75
2021/01/30 12:31:16;;;;;;;3.38;2.30;;;308.00;1740.80;;;;;;5030049;28;20067;-74
2021/01/30 12:33:41;;;;;;;5.28;2.60;;;308.00;1766.40;;;;;;5030475;28;20052;-77
2021/01/30 12:36:08;;;;;;;5.30;2.67;;;308.10;1715.20;;;;;;5029690;28;20512;-73
2021/01/30 12:38:34;;;;;;;7.05;2.65;;;308.10;1715.20;;;;;;5029749;28;20037;-73
2021/01/30 12:41:01;;;;;;;11.15;3.55;;;308.10;1715.20;;;;;;5048182;28;20070;-73
2021/01/30 12:43:27;;;;;;;4.38;2.60;;;308.10;1664.00;;;;;;5047551;28;20017;-72
2021/01/30 12:45:53;;;;;;;7.45;2.90;;;308.10;1664.00;;;;;;5047080;28;20512;-74
2021/01/30 12:48:19;;;;;;;18.58;3.65;;;308.10;1689.60;;;;;;5047182;28;20025;-82
2021/01/30 12:50:45;;;;;;;11.23;3.25;;;332.80;1715.20;;;;;;5048600;28;20052;-80